createdAt,value
2023-01-27T00:00:20.000Z,0
2023-01-27T00:01:35.000Z,0
2023-01-27T00:02:51.000Z,0
2023-01-27T00:04:08.000Z,0
2023-01-27T00:05:24.000Z,0
2023-01-27T00:06:40.000Z,0
2023-01-27T00:07:56.000Z,0
2023-01-27T00:09:12.000Z,0
2023-01-27T00:10:28.000Z,0
2023-01-27T00:11:44.000Z,0
2023-01-27T00:13:01.000Z,0
2023-01-27T00:14:17.000Z,0
2023-01-27T00:15:33.543Z,0
2023-01-27T00:16:49.000Z,0
2023-01-27T00:18:04.853Z,0
2023-01-27T00:19:20.000Z,0
2023-01-27T00:20:37.138Z,0
2023-01-27T00:21:53.000Z,0
2023-01-27T00:23:09.000Z,0
2023-01-27T00:24:25.000Z,0
2023-01-27T00:25:41.724Z,0
2023-01-27T00:26:57.870Z,0
2023-01-27T00:28:13.000Z,0
2023-01-27T00:29:29.000Z,0
2023-01-27T00:30:46.000Z,0
2023-01-27T00:32:02.452Z,0
2023-01-27T00:33:18.599Z,0
2023-01-27T00:34:33.000Z,0
2023-01-27T00:35:49.000Z,0
2023-01-27T00:37:06.057Z,0
2023-01-27T00:38:21.000Z,0
2023-01-27T00:39:38.000Z,0
2023-01-27T00:40:54.487Z,0
2023-01-27T00:42:10.000Z,0
2023-01-27T00:43:26.000Z,0
2023-01-27T00:44:42.000Z,0
2023-01-27T00:45:59.074Z,0
2023-01-27T00:47:15.000Z,0
2023-01-27T00:48:31.000Z,0
2023-01-27T00:49:47.000Z,0
2023-01-27T00:51:02.000Z,0
2023-01-27T00:52:18.000Z,0
2023-01-27T00:53:34.000Z,0
2023-01-27T00:54:50.000Z,0
2023-01-27T00:56:07.000Z,0
2023-01-27T00:57:23.000Z,0
2023-01-27T00:58:39.549Z,0
2023-01-27T00:59:55.000Z,0
2023-01-27T01:01:11.000Z,0
2023-01-27T01:02:27.000Z,0
2023-01-27T01:03:44.136Z,0
2023-01-27T01:05:00.000Z,0
2023-01-27T01:06:16.000Z,0
2023-01-27T01:07:31.587Z,0
2023-01-27T01:08:47.000Z,0
2023-01-27T01:10:03.000Z,0
2023-01-27T01:11:19.000Z,0
2023-01-27T01:12:35.000Z,0
2023-01-27T01:13:52.000Z,0
2023-01-27T01:15:08.000Z,0
2023-01-27T01:16:24.000Z,0
2023-01-27T01:17:40.000Z,0
2023-01-27T01:18:56.000Z,0
2023-01-27T01:20:12.000Z,0
2023-01-27T01:21:29.186Z,0
2023-01-27T01:22:45.000Z,0
2023-01-27T01:24:00.000Z,0
2023-01-27T01:25:16.000Z,0
2023-01-27T01:26:32.000Z,0
2023-01-27T01:27:48.000Z,0
2023-01-27T01:29:04.000Z,0
2023-01-27T01:30:21.000Z,0
2023-01-27T01:31:37.374Z,0
2023-01-27T01:32:53.519Z,0
2023-01-27T01:34:09.000Z,0
2023-01-27T01:35:25.000Z,0
2023-01-27T01:36:41.000Z,0
2023-01-27T01:37:57.000Z,0
2023-01-27T01:39:14.250Z,0
2023-01-27T01:40:29.000Z,0
2023-01-27T01:41:45.000Z,0
2023-01-27T01:43:01.000Z,0
2023-01-27T01:44:17.000Z,0
2023-01-27T01:45:33.000Z,0
2023-01-27T01:46:49.000Z,0
2023-01-27T01:48:06.000Z,0
2023-01-27T01:49:22.000Z,0
2023-01-27T01:50:38.000Z,0
2023-01-27T01:51:54.000Z,0
2023-01-27T01:53:10.000Z,0
2023-01-27T01:54:26.000Z,0
2023-01-27T01:55:42.000Z,0
2023-01-27T01:56:58.319Z,0
2023-01-27T01:58:14.000Z,0
2023-01-27T01:59:30.000Z,0
2023-01-27T02:00:46.769Z,0
2023-01-27T02:02:02.000Z,0
2023-01-27T02:03:18.000Z,0
2023-01-27T02:04:34.000Z,0
2023-01-27T02:05:51.000Z,0
2023-01-27T02:07:07.000Z,0
2023-01-27T02:08:23.000Z,0
2023-01-27T02:09:39.000Z,0
2023-01-27T02:10:55.000Z,0
2023-01-27T02:12:11.000Z,0
2023-01-27T02:13:27.000Z,0
2023-01-27T02:14:43.000Z,0
2023-01-27T02:15:59.000Z,0
2023-01-27T02:17:15.000Z,0
2023-01-27T02:18:31.000Z,0
2023-01-27T02:19:47.000Z,0
2023-01-27T02:21:03.000Z,0
2023-01-27T02:22:20.000Z,0
2023-01-27T02:23:36.000Z,0
2023-01-27T02:24:52.000Z,0
2023-01-27T02:26:08.000Z,0
2023-01-27T02:27:24.858Z,0
2023-01-27T02:28:40.982Z,0
2023-01-27T02:29:55.000Z,0
2023-01-27T02:31:12.000Z,0
2023-01-27T02:32:28.000Z,0
2023-01-27T02:33:44.590Z,0
2023-01-27T02:35:00.000Z,0
2023-01-27T02:36:16.000Z,0
2023-01-27T02:37:31.000Z,0
2023-01-27T02:38:47.000Z,0
2023-01-27T02:40:04.000Z,0
2023-01-27T02:41:20.000Z,0
2023-01-27T02:42:36.000Z,0
2023-01-27T02:43:52.000Z,0
2023-01-27T02:45:08.000Z,0
2023-01-27T02:46:24.000Z,0
2023-01-27T02:47:40.000Z,0
2023-01-27T02:48:57.000Z,0
2023-01-27T02:50:13.000Z,0
2023-01-27T02:51:29.000Z,0
2023-01-27T02:52:45.000Z,0
2023-01-27T02:54:00.000Z,0
2023-01-27T02:55:16.000Z,0
2023-01-27T02:56:33.000Z,0
2023-01-27T02:57:49.000Z,0
2023-01-27T02:59:05.000Z,0
2023-01-27T03:00:21.000Z,0
2023-01-27T03:01:37.000Z,0
2023-01-27T03:02:53.000Z,0
2023-01-27T03:04:09.000Z,0
2023-01-27T03:05:26.000Z,0
2023-01-27T03:06:42.000Z,0
2023-01-27T03:07:58.000Z,0
2023-01-27T03:09:14.000Z,0
2023-01-27T03:10:29.000Z,0
2023-01-27T03:11:45.000Z,0
2023-01-27T03:13:01.000Z,0
2023-01-27T03:14:18.000Z,0
2023-01-27T03:15:34.000Z,0
2023-01-27T03:16:50.000Z,0
2023-01-27T03:18:06.000Z,0
2023-01-27T03:19:22.000Z,0
2023-01-27T03:20:38.000Z,0
2023-01-27T03:21:54.000Z,0
2023-01-27T03:23:11.000Z,0
2023-01-27T03:24:27.000Z,0
2023-01-27T03:25:43.000Z,0
2023-01-27T03:26:58.788Z,0
2023-01-27T03:28:14.000Z,0
2023-01-27T03:29:30.000Z,0
2023-01-27T03:30:46.000Z,0
2023-01-27T03:32:03.000Z,0
2023-01-27T03:33:19.000Z,0
2023-01-27T03:34:35.663Z,0
2023-01-27T03:35:51.000Z,0
2023-01-27T03:37:07.000Z,0
2023-01-27T03:38:23.000Z,0
2023-01-27T03:39:40.000Z,0
2023-01-27T03:40:56.000Z,0
2023-01-27T03:42:12.000Z,0
2023-01-27T03:43:27.000Z,0
2023-01-27T03:44:43.000Z,0
2023-01-27T03:45:59.000Z,0
2023-01-27T03:47:15.000Z,0
2023-01-27T03:48:32.000Z,0
2023-01-27T03:49:48.436Z,0
2023-01-27T03:51:04.000Z,0
2023-01-27T03:52:20.000Z,0
2023-01-27T03:53:36.000Z,0
2023-01-27T03:54:52.000Z,0
2023-01-27T03:56:08.000Z,0
2023-01-27T03:57:25.000Z,0
2023-01-27T03:58:41.443Z,0
2023-01-27T03:59:56.000Z,0
2023-01-27T04:01:12.000Z,0
2023-01-27T04:02:28.000Z,0
2023-01-27T04:03:45.047Z,0
2023-01-27T04:05:01.194Z,0
2023-01-27T04:06:17.000Z,0
2023-01-27T04:07:33.000Z,0
2023-01-27T04:08:49.000Z,0
2023-01-27T04:10:05.000Z,0
2023-01-27T04:11:21.000Z,0
2023-01-27T04:12:37.000Z,0
2023-01-27T04:13:53.000Z,0
2023-01-27T04:15:10.000Z,0
2023-01-27T04:16:25.000Z,0
2023-01-27T04:17:41.000Z,0
2023-01-27T04:18:57.000Z,0
2023-01-27T04:20:13.000Z,0
2023-01-27T04:21:29.000Z,0
2023-01-27T04:22:46.000Z,0
2023-01-27T04:24:02.421Z,0
2023-01-27T04:25:18.000Z,0
2023-01-27T04:26:34.000Z,0
2023-01-27T04:27:50.000Z,0
2023-01-27T04:29:06.000Z,0
2023-01-27T04:30:22.000Z,0
2023-01-27T04:31:39.000Z,0
2023-01-27T04:32:54.000Z,0
2023-01-27T04:34:10.000Z,0
2023-01-27T04:35:26.733Z,0
2023-01-27T04:36:42.000Z,0
2023-01-27T04:37:58.000Z,0
2023-01-27T04:39:14.000Z,0
2023-01-27T04:40:31.000Z,0
2023-01-27T04:41:47.000Z,0
2023-01-27T04:43:03.000Z,0
2023-01-27T04:44:19.000Z,0
2023-01-27T04:45:35.000Z,0
2023-01-27T04:46:52.057Z,0
2023-01-27T04:48:07.000Z,0
2023-01-27T04:49:23.000Z,0
2023-01-27T04:50:39.513Z,0
2023-01-27T04:51:55.000Z,0
2023-01-27T04:53:11.000Z,0
2023-01-27T04:54:27.000Z,0
2023-01-27T04:55:43.000Z,0
2023-01-27T04:57:00.000Z,0
2023-01-27T04:58:16.000Z,0
2023-01-27T04:59:32.541Z,0
2023-01-27T05:00:48.686Z,0
2023-01-27T05:02:04.000Z,0
2023-01-27T05:03:20.000Z,0
2023-01-27T05:04:37.128Z,0
2023-01-27T05:05:52.000Z,0
2023-01-27T05:07:08.000Z,0
2023-01-27T05:08:24.000Z,0
2023-01-27T05:09:40.728Z,0
2023-01-27T05:10:56.000Z,0
2023-01-27T05:12:12.000Z,0
2023-01-27T05:13:28.000Z,0
2023-01-27T05:14:45.000Z,0
2023-01-27T05:16:01.000Z,0
2023-01-27T05:17:17.000Z,0
2023-01-27T05:18:33.000Z,0
2023-01-27T05:19:49.000Z,0
2023-01-27T05:21:06.055Z,0
2023-01-27T05:22:21.216Z,0
2023-01-27T05:23:37.000Z,0
2023-01-27T05:24:53.000Z,0
2023-01-27T05:26:09.657Z,0
2023-01-27T05:27:25.812Z,0
2023-01-27T05:28:41.000Z,0
2023-01-27T05:29:58.119Z,0
2023-01-27T05:31:14.000Z,0
2023-01-27T05:32:30.000Z,0
2023-01-27T05:33:46.541Z,0
2023-01-27T05:35:02.000Z,0
2023-01-27T05:36:18.000Z,0
2023-01-27T05:37:34.000Z,0
2023-01-27T05:38:49.000Z,0
2023-01-27T05:40:06.000Z,0
2023-01-27T05:41:22.464Z,0
2023-01-27T05:42:38.000Z,0
2023-01-27T05:43:54.000Z,0
2023-01-27T05:45:10.000Z,0
2023-01-27T05:46:26.000Z,0
2023-01-27T05:47:42.000Z,0
2023-01-27T05:48:59.000Z,0
2023-01-27T05:50:15.000Z,0
2023-01-27T05:51:31.000Z,0
2023-01-27T05:52:47.765Z,0
2023-01-27T05:54:03.000Z,0
2023-01-27T05:55:18.000Z,0
2023-01-27T05:56:34.000Z,0
2023-01-27T05:57:51.372Z,0
2023-01-27T05:59:07.000Z,0
2023-01-27T06:00:23.000Z,0
2023-01-27T06:01:39.000Z,0
2023-01-27T06:02:55.000Z,0
2023-01-27T06:04:11.000Z,0
2023-01-27T06:05:28.262Z,0
2023-01-27T06:06:44.000Z,0
2023-01-27T06:08:00.631Z,0
2023-01-27T06:09:16.000Z,0
2023-01-27T06:10:32.000Z,0
2023-01-27T06:11:47.000Z,0
2023-01-27T06:13:03.000Z,0
2023-01-27T06:14:20.000Z,0
2023-01-27T06:15:36.000Z,0
2023-01-27T06:16:52.000Z,0
2023-01-27T06:18:08.000Z,0
2023-01-27T06:19:24.000Z,0
2023-01-27T06:20:40.000Z,0
2023-01-27T06:21:56.000Z,0
2023-01-27T06:23:13.000Z,0
2023-01-27T06:24:29.000Z,0
2023-01-27T06:25:45.621Z,0
2023-01-27T06:27:01.000Z,0
2023-01-27T06:28:16.000Z,0
2023-01-27T06:29:32.000Z,0
2023-01-27T06:30:48.000Z,0
2023-01-27T06:32:05.000Z,0
2023-01-27T06:33:21.000Z,0
2023-01-27T06:34:37.000Z,0
2023-01-27T06:35:53.000Z,0
2023-01-27T06:37:09.965Z,0
2023-01-27T06:38:25.000Z,0
2023-01-27T06:39:42.000Z,0
2023-01-27T06:40:58.000Z,0
2023-01-27T06:42:14.000Z,0
2023-01-27T06:43:30.000Z,0
2023-01-27T06:44:45.000Z,0
2023-01-27T06:46:01.000Z,0
2023-01-27T06:47:17.000Z,0
2023-01-27T06:48:34.312Z,0
2023-01-27T06:49:50.000Z,0
2023-01-27T06:51:06.000Z,0
2023-01-27T06:52:21.000Z,0
2023-01-27T06:53:37.000Z,0
2023-01-27T06:54:53.000Z,0
2023-01-27T06:56:09.000Z,0
2023-01-27T06:57:26.000Z,0
2023-01-27T06:58:42.497Z,0
2023-01-27T06:59:58.000Z,0
2023-01-27T07:01:14.792Z,0
2023-01-27T07:02:30.000Z,0
2023-01-27T07:03:46.000Z,0
2023-01-27T07:05:03.000Z,0
2023-01-27T07:06:19.000Z,0
2023-01-27T07:07:35.000Z,0
2023-01-27T07:08:50.000Z,0
2023-01-27T07:10:06.000Z,0
2023-01-27T07:11:22.000Z,0
2023-01-27T07:12:38.000Z,0
2023-01-27T07:13:55.000Z,0
2023-01-27T07:15:11.000Z,0
2023-01-27T07:16:27.000Z,0
2023-01-27T07:17:43.000Z,0
2023-01-27T07:18:59.000Z,0
2023-01-27T07:20:15.000Z,0
2023-01-27T07:21:32.162Z,0
2023-01-27T07:22:48.000Z,0
2023-01-27T07:24:04.000Z,0
2023-01-27T07:25:19.000Z,0
2023-01-27T07:26:35.000Z,0
2023-01-27T07:27:51.908Z,0
2023-01-27T07:29:07.000Z,0
2023-01-27T07:30:23.000Z,0
2023-01-27T07:31:40.000Z,0
2023-01-27T07:32:56.000Z,0
2023-01-27T07:34:12.647Z,5
2023-01-27T07:35:28.000Z,5
2023-01-27T07:36:44.000Z,5
2023-01-27T07:38:00.000Z,5
2023-01-27T07:39:17.239Z,5
2023-01-27T07:40:33.000Z,5
2023-01-27T07:41:48.000Z,5
2023-01-27T07:43:04.000Z,5
2023-01-27T07:44:20.837Z,5
2023-01-27T07:45:36.000Z,5
2023-01-27T07:46:53.147Z,5
2023-01-27T07:48:09.000Z,5
2023-01-27T07:49:25.000Z,5
2023-01-27T07:50:41.000Z,5
2023-01-27T07:51:57.000Z,5
2023-01-27T07:53:13.000Z,5
2023-01-27T07:54:29.000Z,5
2023-01-27T07:55:46.161Z,5
2023-01-27T07:57:02.000Z,5
2023-01-27T07:58:17.000Z,5
2023-01-27T07:59:33.000Z,5
2023-01-27T08:00:49.000Z,5
2023-01-27T08:02:05.000Z,11
2023-01-27T08:03:21.000Z,11
2023-01-27T08:04:37.000Z,11
2023-01-27T08:05:54.000Z,11
2023-01-27T08:07:10.000Z,11
2023-01-27T08:08:26.000Z,16
2023-01-27T08:09:42.000Z,16
2023-01-27T08:10:58.973Z,16
2023-01-27T08:12:15.096Z,16
2023-01-27T08:13:31.000Z,16
2023-01-27T08:14:46.000Z,16
2023-01-27T08:16:02.000Z,16
2023-01-27T08:17:18.000Z,16
2023-01-27T08:18:34.000Z,16
2023-01-27T08:19:51.008Z,16
2023-01-27T08:21:06.000Z,16
2023-01-27T08:22:23.000Z,16
2023-01-27T08:23:39.000Z,22
2023-01-27T08:24:55.579Z,16
2023-01-27T08:26:11.000Z,16
2023-01-27T08:27:27.000Z,16
2023-01-27T08:28:43.000Z,22
2023-01-27T08:29:59.000Z,22
2023-01-27T08:31:15.000Z,22
2023-01-27T08:32:31.494Z,22
2023-01-27T08:33:47.000Z,22
2023-01-27T08:35:03.000Z,16
2023-01-27T08:36:19.000Z,16
2023-01-27T08:37:35.000Z,16
2023-01-27T08:38:51.000Z,16
2023-01-27T08:40:08.374Z,16
2023-01-27T08:41:24.000Z,16
2023-01-27T08:42:40.000Z,16
2023-01-27T08:43:56.000Z,22
2023-01-27T08:45:12.000Z,22
2023-01-27T08:46:28.000Z,22
2023-01-27T08:47:44.000Z,22
2023-01-27T08:49:00.000Z,22
2023-01-27T08:50:16.000Z,22
2023-01-27T08:51:32.000Z,28
2023-01-27T08:52:48.866Z,22
2023-01-27T08:54:04.000Z,22
2023-01-27T08:55:21.164Z,22
2023-01-27T08:56:37.290Z,22
2023-01-27T08:57:53.444Z,22
2023-01-27T08:59:09.589Z,22
2023-01-27T09:00:25.000Z,22
2023-01-27T09:01:41.000Z,22
2023-01-27T09:02:57.000Z,22
2023-01-27T09:04:13.191Z,22
2023-01-27T09:05:29.000Z,28
2023-01-27T09:06:45.000Z,28
2023-01-27T09:08:01.637Z,28
2023-01-27T09:09:17.000Z,28
2023-01-27T09:10:33.000Z,33
2023-01-27T09:11:49.000Z,28
2023-01-27T09:13:05.000Z,22
2023-01-27T09:14:22.000Z,28
2023-01-27T09:15:38.000Z,28
2023-01-27T09:16:54.000Z,22
2023-01-27T09:18:10.000Z,22
2023-01-27T09:19:26.000Z,22
2023-01-27T09:20:41.000Z,22
2023-01-27T09:21:58.000Z,28
2023-01-27T09:23:14.000Z,28
2023-01-27T09:24:30.000Z,28
2023-01-27T09:25:46.000Z,33
2023-01-27T09:27:02.862Z,39
2023-01-27T09:28:19.194Z,45
2023-01-27T09:29:34.000Z,39
2023-01-27T09:30:51.000Z,39
2023-01-27T09:32:07.000Z,39
2023-01-27T09:33:23.000Z,45
2023-01-27T09:34:39.000Z,45
2023-01-27T09:35:55.000Z,45
2023-01-27T09:37:10.000Z,45
2023-01-27T09:38:26.000Z,39
2023-01-27T09:39:43.000Z,33
2023-01-27T09:40:59.000Z,33
2023-01-27T09:42:15.000Z,33
2023-01-27T09:43:31.790Z,33
2023-01-27T09:44:47.000Z,33
2023-01-27T09:46:04.085Z,39
2023-01-27T09:47:19.000Z,39
2023-01-27T09:48:36.000Z,39
2023-01-27T09:49:52.000Z,39
2023-01-27T09:51:08.000Z,39
2023-01-27T09:52:24.000Z,33
2023-01-27T09:53:39.000Z,39
2023-01-27T09:54:55.000Z,33
2023-01-27T09:56:12.000Z,39
2023-01-27T09:57:28.000Z,39
2023-01-27T09:58:44.000Z,39
2023-01-27T10:00:00.000Z,45
2023-01-27T10:01:16.000Z,50
2023-01-27T10:02:32.000Z,56
2023-01-27T10:03:48.000Z,56
2023-01-27T10:05:05.000Z,56
2023-01-27T10:06:21.000Z,61
2023-01-27T10:07:37.000Z,61
2023-01-27T10:08:53.000Z,56
2023-01-27T10:10:08.000Z,56
2023-01-27T10:11:24.000Z,50
2023-01-27T10:12:40.000Z,50
2023-01-27T10:13:57.000Z,45
2023-01-27T10:15:13.000Z,45
2023-01-27T10:16:29.000Z,50
2023-01-27T10:17:45.798Z,56
2023-01-27T10:19:01.000Z,56
2023-01-27T10:20:17.000Z,56
2023-01-27T10:21:34.000Z,56
2023-01-27T10:22:50.384Z,56
2023-01-27T10:24:06.000Z,56
2023-01-27T10:25:22.000Z,56
2023-01-27T10:26:37.000Z,61
2023-01-27T10:27:53.994Z,61
2023-01-27T10:29:09.000Z,61
2023-01-27T10:30:26.000Z,61
2023-01-27T10:31:42.000Z,61
2023-01-27T10:32:58.000Z,61
2023-01-27T10:34:14.000Z,61
2023-01-27T10:35:30.000Z,61
2023-01-27T10:36:46.000Z,61
2023-01-27T10:38:02.000Z,61
2023-01-27T10:39:19.000Z,61
2023-01-27T10:40:35.000Z,61
2023-01-27T10:41:51.000Z,61
2023-01-27T10:43:06.000Z,61
2023-01-27T10:44:22.000Z,56
2023-01-27T10:45:38.000Z,61
2023-01-27T10:46:54.000Z,67
2023-01-27T10:48:11.000Z,61
2023-01-27T10:49:27.000Z,61
2023-01-27T10:50:43.000Z,61
2023-01-27T10:51:59.000Z,50
2023-01-27T10:53:15.000Z,50
2023-01-27T10:54:32.097Z,45
2023-01-27T10:55:48.000Z,50
2023-01-27T10:57:04.000Z,50
2023-01-27T10:58:20.000Z,50
2023-01-27T10:59:35.000Z,50
2023-01-27T11:00:51.000Z,50
2023-01-27T11:02:07.000Z,56
2023-01-27T11:03:23.000Z,61
2023-01-27T11:04:40.000Z,61
2023-01-27T11:05:56.000Z,67
2023-01-27T11:07:11.595Z,67
2023-01-27T11:08:27.000Z,61
2023-01-27T11:09:43.000Z,61
2023-01-27T11:10:59.000Z,61
2023-01-27T11:12:15.000Z,61
2023-01-27T11:13:32.377Z,61
2023-01-27T11:14:48.000Z,61
2023-01-27T11:16:04.000Z,56
2023-01-27T11:17:20.000Z,56
2023-01-27T11:18:36.000Z,61
2023-01-27T11:19:52.000Z,61
2023-01-27T11:21:08.000Z,61
2023-01-27T11:22:25.000Z,61
2023-01-27T11:23:40.000Z,61
2023-01-27T11:24:56.000Z,61
2023-01-27T11:26:12.000Z,61
2023-01-27T11:27:28.961Z,61
2023-01-27T11:28:44.000Z,50
2023-01-27T11:30:01.268Z,45
2023-01-27T11:31:17.000Z,50
2023-01-27T11:32:33.544Z,56
2023-01-27T11:33:49.000Z,61
2023-01-27T11:35:05.000Z,61
2023-01-27T11:36:21.000Z,61
2023-01-27T11:37:37.000Z,67
2023-01-27T11:38:54.000Z,67
2023-01-27T11:40:09.000Z,67
2023-01-27T11:41:25.000Z,67
2023-01-27T11:42:41.000Z,61
2023-01-27T11:43:57.000Z,67
2023-01-27T11:45:14.031Z,67
2023-01-27T11:46:29.000Z,67
2023-01-27T11:47:46.000Z,73
2023-01-27T11:49:02.000Z,73
2023-01-27T11:50:18.000Z,73
2023-01-27T11:51:34.000Z,73
2023-01-27T11:52:50.911Z,67
2023-01-27T11:54:06.000Z,67
2023-01-27T11:55:22.000Z,61
2023-01-27T11:56:38.384Z,61
2023-01-27T11:57:54.000Z,61
2023-01-27T11:59:10.000Z,61
2023-01-27T12:00:26.000Z,67
2023-01-27T12:01:42.000Z,67
2023-01-27T12:02:58.000Z,61
2023-01-27T12:04:15.000Z,67
2023-01-27T12:05:31.000Z,73
2023-01-27T12:06:47.000Z,61
2023-01-27T12:08:03.000Z,61
2023-01-27T12:09:19.000Z,56
2023-01-27T12:10:35.000Z,61
2023-01-27T12:11:51.000Z,61
2023-01-27T12:13:07.000Z,61
2023-01-27T12:14:23.445Z,61
2023-01-27T12:15:39.000Z,73
2023-01-27T12:16:55.000Z,67
2023-01-27T12:18:11.000Z,67
2023-01-27T12:19:27.000Z,61
2023-01-27T12:20:43.000Z,78
2023-01-27T12:22:00.328Z,78
2023-01-27T12:23:16.000Z,67
2023-01-27T12:24:32.000Z,61
2023-01-27T12:25:48.771Z,50
2023-01-27T12:27:04.000Z,73
2023-01-27T12:28:20.000Z,84
2023-01-27T12:29:36.000Z,78
2023-01-27T12:30:52.000Z,95
2023-01-27T12:32:08.000Z,90
2023-01-27T12:33:24.000Z,84
2023-01-27T12:34:40.000Z,78
2023-01-27T12:35:56.000Z,73
2023-01-27T12:37:12.000Z,67
2023-01-27T12:38:29.000Z,67
2023-01-27T12:39:45.000Z,67
2023-01-27T12:41:01.000Z,67
2023-01-27T12:42:17.000Z,67
2023-01-27T12:43:33.840Z,61
2023-01-27T12:44:49.000Z,56
2023-01-27T12:46:04.000Z,56
2023-01-27T12:47:21.000Z,61
2023-01-27T12:48:37.000Z,67
2023-01-27T12:49:53.000Z,67
2023-01-27T12:51:09.000Z,56
2023-01-27T12:52:25.000Z,67
2023-01-27T12:53:41.000Z,67
2023-01-27T12:54:57.000Z,73
2023-01-27T12:56:14.000Z,73
2023-01-27T12:57:30.000Z,67
2023-01-27T12:58:46.000Z,67
2023-01-27T13:00:02.772Z,61
2023-01-27T13:01:18.000Z,61
2023-01-27T13:02:33.000Z,61
2023-01-27T13:03:49.000Z,56
2023-01-27T13:05:06.373Z,50
2023-01-27T13:06:22.000Z,50
2023-01-27T13:07:38.000Z,50
2023-01-27T13:08:54.000Z,50
2023-01-27T13:10:10.000Z,45
2023-01-27T13:11:26.000Z,45
2023-01-27T13:12:43.000Z,45
2023-01-27T13:13:59.000Z,50
2023-01-27T13:15:15.000Z,61
2023-01-27T13:16:31.000Z,61
2023-01-27T13:17:47.000Z,61
2023-01-27T13:19:02.000Z,61
2023-01-27T13:20:18.000Z,61
2023-01-27T13:21:35.000Z,61
2023-01-27T13:22:51.000Z,56
2023-01-27T13:24:07.000Z,50
2023-01-27T13:25:23.000Z,56
2023-01-27T13:26:39.000Z,61
2023-01-27T13:27:55.000Z,61
2023-01-27T13:29:11.000Z,56
2023-01-27T13:30:28.000Z,56
2023-01-27T13:31:44.000Z,50
2023-01-27T13:33:00.000Z,45
2023-01-27T13:34:16.000Z,39
2023-01-27T13:35:31.000Z,39
2023-01-27T13:36:47.000Z,33
2023-01-27T13:38:04.000Z,33
2023-01-27T13:39:20.000Z,33
2023-01-27T13:40:36.000Z,33
2023-01-27T13:41:52.000Z,33
2023-01-27T13:43:08.000Z,39
2023-01-27T13:44:24.000Z,39
2023-01-27T13:45:40.000Z,39
2023-01-27T13:46:57.000Z,45
2023-01-27T13:48:13.000Z,45
2023-01-27T13:49:29.000Z,50
2023-01-27T13:50:45.000Z,50
2023-01-27T13:52:00.863Z,50
2023-01-27T13:53:16.000Z,50
2023-01-27T13:54:32.000Z,50
2023-01-27T13:55:49.000Z,45
2023-01-27T13:57:05.000Z,45
2023-01-27T13:58:21.610Z,45
2023-01-27T13:59:37.000Z,45
2023-01-27T14:00:53.000Z,45
2023-01-27T14:02:09.000Z,50
2023-01-27T14:03:25.000Z,50
2023-01-27T14:04:42.000Z,45
2023-01-27T14:05:58.000Z,45
2023-01-27T14:07:14.000Z,45
2023-01-27T14:08:29.000Z,45
2023-01-27T14:09:45.000Z,45
2023-01-27T14:11:01.000Z,45
2023-01-27T14:12:17.000Z,45
2023-01-27T14:13:34.000Z,45
2023-01-27T14:14:50.000Z,45
2023-01-27T14:16:06.000Z,39
2023-01-27T14:17:22.000Z,39
2023-01-27T14:18:38.000Z,39
2023-01-27T14:19:54.000Z,33
2023-01-27T14:21:11.000Z,33
2023-01-27T14:22:27.000Z,33
2023-01-27T14:23:43.000Z,33
2023-01-27T14:24:58.000Z,33
2023-01-27T14:26:14.831Z,33
2023-01-27T14:27:30.000Z,28
2023-01-27T14:28:46.000Z,28
2023-01-27T14:30:03.000Z,28
2023-01-27T14:31:19.415Z,28
2023-01-27T14:32:35.000Z,33
2023-01-27T14:33:51.000Z,33
2023-01-27T14:35:07.000Z,33
2023-01-27T14:36:23.000Z,28
2023-01-27T14:37:39.000Z,28
2023-01-27T14:38:56.000Z,28
2023-01-27T14:40:12.000Z,22
2023-01-27T14:41:27.000Z,22
2023-01-27T14:42:43.000Z,22
2023-01-27T14:43:59.000Z,22
2023-01-27T14:45:15.000Z,22
2023-01-27T14:46:31.000Z,16
2023-01-27T14:47:48.000Z,16
2023-01-27T14:49:04.000Z,16
2023-01-27T14:50:20.000Z,16
2023-01-27T14:51:36.000Z,16
2023-01-27T14:52:52.910Z,16
2023-01-27T14:54:08.000Z,11
2023-01-27T14:55:24.000Z,11
2023-01-27T14:56:41.000Z,11
2023-01-27T14:57:56.000Z,11
2023-01-27T14:59:12.000Z,11
2023-01-27T15:00:28.000Z,11
2023-01-27T15:01:44.000Z,11
2023-01-27T15:03:00.000Z,11
2023-01-27T15:04:17.000Z,11
2023-01-27T15:05:33.000Z,11
2023-01-27T15:06:49.000Z,11
2023-01-27T15:08:05.000Z,11
2023-01-27T15:09:21.000Z,11
2023-01-27T15:10:37.000Z,11
2023-01-27T15:11:53.000Z,11
2023-01-27T15:13:10.000Z,11
2023-01-27T15:14:25.000Z,11
2023-01-27T15:15:41.000Z,5
2023-01-27T15:16:57.000Z,5
2023-01-27T15:18:13.000Z,5
2023-01-27T15:19:29.000Z,5
2023-01-27T15:20:45.000Z,5
2023-01-27T15:22:01.000Z,5
2023-01-27T15:23:17.000Z,5
2023-01-27T15:24:33.000Z,5
2023-01-27T15:25:49.000Z,5
2023-01-27T15:27:05.000Z,5
2023-01-27T15:28:21.000Z,5
2023-01-27T15:29:37.000Z,5
2023-01-27T15:30:54.000Z,5
2023-01-27T15:32:10.000Z,5
2023-01-27T15:33:26.000Z,5
2023-01-27T15:34:42.000Z,5
2023-01-27T15:35:58.000Z,5
2023-01-27T15:37:14.000Z,0
2023-01-27T15:38:30.000Z,0
2023-01-27T15:39:46.000Z,0
2023-01-27T15:41:02.000Z,0
2023-01-27T15:42:18.000Z,0
2023-01-27T15:43:34.000Z,0
2023-01-27T15:44:50.964Z,0
2023-01-27T15:46:06.000Z,0
2023-01-27T15:47:23.000Z,0
2023-01-27T15:48:39.000Z,0
2023-01-27T15:49:55.000Z,0
2023-01-27T15:51:11.000Z,0
2023-01-27T15:52:27.828Z,0
2023-01-27T15:53:43.000Z,0
2023-01-27T15:54:59.138Z,0
2023-01-27T15:56:15.000Z,0
2023-01-27T15:57:31.000Z,0
2023-01-27T15:58:47.000Z,0
2023-01-27T16:00:03.000Z,0
2023-01-27T16:01:19.000Z,0
2023-01-27T16:02:35.000Z,0
2023-01-27T16:03:52.166Z,0
2023-01-27T16:05:08.000Z,0
2023-01-27T16:06:24.000Z,0
2023-01-27T16:07:40.000Z,0
2023-01-27T16:08:56.000Z,0
2023-01-27T16:10:12.000Z,0
2023-01-27T16:11:27.000Z,0
2023-01-27T16:12:43.000Z,0
2023-01-27T16:14:00.000Z,0
2023-01-27T16:15:16.000Z,0
2023-01-27T16:16:32.641Z,0
2023-01-27T16:17:48.000Z,0
2023-01-27T16:19:04.000Z,0
2023-01-27T16:20:20.000Z,0
2023-01-27T16:21:36.000Z,0
2023-01-27T16:22:53.369Z,0
2023-01-27T16:24:09.000Z,0
2023-01-27T16:25:25.000Z,0
2023-01-27T16:26:41.000Z,0
2023-01-27T16:27:56.000Z,0
2023-01-27T16:29:12.000Z,0
2023-01-27T16:30:29.000Z,0
2023-01-27T16:31:45.000Z,0
2023-01-27T16:33:01.000Z,0
2023-01-27T16:34:17.000Z,0
2023-01-27T16:35:33.000Z,0
2023-01-27T16:36:49.000Z,0
2023-01-27T16:38:05.000Z,0
2023-01-27T16:39:22.000Z,0
2023-01-27T16:40:38.000Z,0
2023-01-27T16:41:54.000Z,0
2023-01-27T16:43:10.000Z,0
2023-01-27T16:44:25.888Z,0
2023-01-27T16:45:41.000Z,0
2023-01-27T16:46:58.168Z,0
2023-01-27T16:48:14.000Z,0
2023-01-27T16:49:30.000Z,0
2023-01-27T16:50:46.000Z,0
2023-01-27T16:52:02.000Z,0
2023-01-27T16:53:18.000Z,0
2023-01-27T16:54:34.000Z,0
2023-01-27T16:55:50.000Z,0
2023-01-27T16:57:07.000Z,0
2023-01-27T16:58:23.482Z,0
2023-01-27T16:59:39.000Z,0
2023-01-27T17:00:54.000Z,0
2023-01-27T17:02:10.000Z,0
2023-01-27T17:03:26.000Z,0
2023-01-27T17:04:42.000Z,0
2023-01-27T17:05:59.000Z,0
2023-01-27T17:07:15.000Z,0
2023-01-27T17:08:31.000Z,0
2023-01-27T17:09:47.000Z,0
2023-01-27T17:11:03.000Z,0
2023-01-27T17:12:19.000Z,0
2023-01-27T17:13:36.000Z,0
2023-01-27T17:14:52.000Z,0
2023-01-27T17:16:08.000Z,0
2023-01-27T17:17:23.000Z,0
2023-01-27T17:18:39.000Z,0
2023-01-27T17:19:55.000Z,0
2023-01-27T17:21:11.000Z,0
2023-01-27T17:22:28.000Z,0
2023-01-27T17:23:44.000Z,0
2023-01-27T17:25:00.000Z,0
2023-01-27T17:26:16.000Z,0
2023-01-27T17:27:32.000Z,0
2023-01-27T17:28:48.000Z,0
2023-01-27T17:30:04.000Z,0
2023-01-27T17:31:21.000Z,0
2023-01-27T17:32:37.000Z,0
2023-01-27T17:33:52.614Z,0
2023-01-27T17:35:08.760Z,0
2023-01-27T17:36:24.000Z,0
2023-01-27T17:37:40.000Z,0
2023-01-27T17:38:56.000Z,0
2023-01-27T17:40:13.000Z,0
2023-01-27T17:41:29.000Z,0
2023-01-27T17:42:45.000Z,0
2023-01-27T17:44:01.000Z,0
2023-01-27T17:45:17.000Z,0
2023-01-27T17:46:33.000Z,0
2023-01-27T17:47:49.000Z,0
2023-01-27T17:49:06.000Z,0
2023-01-27T17:50:21.000Z,0
2023-01-27T17:51:37.000Z,0
2023-01-27T17:52:53.000Z,0
2023-01-27T17:54:09.000Z,0
2023-01-27T17:55:25.000Z,0
2023-01-27T17:56:42.000Z,0
2023-01-27T17:57:58.000Z,0
2023-01-27T17:59:14.000Z,0
2023-01-27T18:00:30.000Z,0
2023-01-27T18:01:46.000Z,0
2023-01-27T18:03:03.021Z,0
2023-01-27T18:04:18.000Z,0
2023-01-27T18:05:35.000Z,0
2023-01-27T18:06:50.000Z,0
2023-01-27T18:08:06.000Z,0
2023-01-27T18:09:22.000Z,0
2023-01-27T18:10:38.000Z,0
2023-01-27T18:11:54.000Z,0
2023-01-27T18:13:10.000Z,0
2023-01-27T18:14:27.000Z,0
2023-01-27T18:15:43.000Z,0
2023-01-27T18:16:59.613Z,0
2023-01-27T18:18:15.000Z,0
2023-01-27T18:19:31.000Z,0
2023-01-27T18:20:47.000Z,0
2023-01-27T18:22:03.000Z,0
2023-01-27T18:23:19.000Z,0
2023-01-27T18:24:35.000Z,0
2023-01-27T18:25:51.000Z,0
2023-01-27T18:27:07.000Z,0
2023-01-27T18:28:23.000Z,0